sensor_id;sensor_type;location;lat;lon;timestamp;P1;durP1;ratioP1;P2;durP2;ratioP2
33563;SDS011;19894;48.452;11.494;2023-02-14T00:00:54;0.20;;;0.20;;
33563;SDS011;19894;48.452;11.494;2023-02-14T00:03:19;0.40;;;0.30;;
33563;SDS011;19894;48.452;11.494;2023-02-14T00:05:45;0.38;;;0.20;;
33563;SDS011;19894;48.452;11.494;2023-02-14T00:08:10;0.20;;;0.20;;
33563;SDS011;19894;48.452;11.494;2023-02-14T00:10:36;0.20;;;0.20;;
33563;SDS011;19894;48.452;11.494;2023-02-14T00:13:02;0.28;;;0.20;;
33563;SDS011;19894;48.452;11.494;2023-02-14T00:15:27;0.20;;;0.10;;
33563;SDS011;19894;48.452;11.494;2023-02-14T00:17:54;0.40;;;0.30;;
33563;SDS011;19894;48.452;11.494;2023-02-14T00:20:21;0.10;;;0.10;;
33563;SDS011;19894;48.452;11.494;2023-02-14T00:22:47;0.17;;;0.17;;
33563;SDS011;19894;48.452;11.494;2023-02-14T00:25:13;0.20;;;0.20;;
33563;SDS011;19894;48.452;11.494;2023-02-14T00:27:39;0.20;;;0.20;;
33563;SDS011;19894;48.452;11.494;2023-02-14T00:30:05;0.17;;;0.17;;
33563;SDS011;19894;48.452;11.494;2023-02-14T00:32:32;0.30;;;0.20;;
33563;SDS011;19894;48.452;11.494;2023-02-14T00:34:57;0.22;;;0.22;;
33563;SDS011;19894;48.452;11.494;2023-02-14T00:37:23;0.30;;;0.20;;
33563;SDS011;19894;48.452;11.494;2023-02-14T00:39:49;0.30;;;0.20;;
33563;SDS011;19894;48.452;11.494;2023-02-14T00:42:15;0.30;;;0.30;;
33563;SDS011;19894;48.452;11.494;2023-02-14T00:44:41;0.40;;;0.30;;
33563;SDS011;19894;48.452;11.494;2023-02-14T00:47:06;0.20;;;0.20;;
33563;SDS011;19894;48.452;11.494;2023-02-14T00:49:32;0.30;;;0.30;;
33563;SDS011;19894;48.452;11.494;2023-02-14T00:51:59;0.30;;;0.28;;
33563;SDS011;19894;48.452;11.494;2023-02-14T00:54:24;0.32;;;0.20;;
33563;SDS011;19894;48.452;11.494;2023-02-14T00:56:50;0.20;;;0.20;;
33563;SDS011;19894;48.452;11.494;2023-02-14T00:59:16;0.20;;;0.10;;
33563;SDS011;19894;48.452;11.494;2023-02-14T01:01:41;0.20;;;0.20;;
33563;SDS011;19894;48.452;11.494;2023-02-14T01:04:07;0.22;;;0.20;;
33563;SDS011;19894;48.452;11.494;2023-02-14T01:06:32;0.30;;;0.15;;
33563;SDS011;19894;48.452;11.494;2023-02-14T01:08:58;0.20;;;0.10;;
33563;SDS011;19894;48.452;11.494;2023-02-14T01:11:24;0.10;;;0.10;;
33563;SDS011;19894;48.452;11.494;2023-02-14T01:13:50;0.20;;;0.20;;
33563;SDS011;19894;48.452;11.494;2023-02-14T01:16:19;0.10;;;0.10;;
33563;SDS011;19894;48.452;11.494;2023-02-14T01:18:47;0.43;;;0.25;;
33563;SDS011;19894;48.452;11.494;2023-02-14T01:23:39;0.10;;;0.10;;
33563;SDS011;19894;48.452;11.494;2023-02-14T01:26:06;0.20;;;0.15;;
33563;SDS011;19894;48.452;11.494;2023-02-14T01:28:32;0.10;;;0.10;;
33563;SDS011;19894;48.452;11.494;2023-02-14T01:31:04;0.10;;;0.10;;
33563;SDS011;19894;48.452;11.494;2023-02-14T01:33:34;0.17;;;0.10;;
33563;SDS011;19894;48.452;11.494;2023-02-14T01:36:00;0.22;;;0.17;;
33563;SDS011;19894;48.452;11.494;2023-02-14T01:38:26;0.10;;;0.10;;
33563;SDS011;19894;48.452;11.494;2023-02-14T01:40:51;0.20;;;0.10;;
33563;SDS011;19894;48.452;11.494;2023-02-14T01:43:17;0.20;;;0.20;;
33563;SDS011;19894;48.452;11.494;2023-02-14T01:45:42;0.20;;;0.15;;
33563;SDS011;19894;48.452;11.494;2023-02-14T01:48:08;0.17;;;0.17;;
33563;SDS011;19894;48.452;11.494;2023-02-14T01:50:35;0.47;;;0.28;;
33563;SDS011;19894;48.452;11.494;2023-02-14T01:53:04;0.10;;;0.10;;
33563;SDS011;19894;48.452;11.494;2023-02-14T01:55:35;0.17;;;0.17;;
33563;SDS011;19894;48.452;11.494;2023-02-14T01:58:05;0.10;;;0.10;;
33563;SDS011;19894;48.452;11.494;2023-02-14T02:00:33;0.10;;;0.10;;
33563;SDS011;19894;48.452;11.494;2023-02-14T02:03:18;0.20;;;0.10;;
33563;SDS011;19894;48.452;11.494;2023-02-14T02:05:46;0.20;;;0.20;;
33563;SDS011;19894;48.452;11.494;2023-02-14T02:08:13;0.20;;;0.20;;
33563;SDS011;19894;48.452;11.494;2023-02-14T02:10:39;0.20;;;0.20;;
33563;SDS011;19894;48.452;11.494;2023-02-14T02:13:06;0.28;;;0.20;;
33563;SDS011;19894;48.452;11.494;2023-02-14T02:15:46;0.13;;;0.10;;
33563;SDS011;19894;48.452;11.494;2023-02-14T02:37:39;0.17;;;0.17;;
33563;SDS011;19894;48.452;11.494;2023-02-14T02:40:16;0.17;;;0.13;;
33563;SDS011;19894;48.452;11.494;2023-02-14T02:46:02;0.05;;;0.05;;
33563;SDS011;19894;48.452;11.494;2023-02-14T02:51:27;0.20;;;0.20;;
33563;SDS011;19894;48.452;11.494;2023-02-14T02:54:40;0.10;;;0.10;;
33563;SDS011;19894;48.452;11.494;2023-02-14T02:57:14;0.15;;;0.15;;
33563;SDS011;19894;48.452;11.494;2023-02-14T02:59:45;0.00;;;0.00;;
33563;SDS011;19894;48.452;11.494;2023-02-14T03:02:15;0.10;;;0.10;;
33563;SDS011;19894;48.452;11.494;2023-02-14T03:04:49;0.10;;;0.10;;
33563;SDS011;19894;48.452;11.494;2023-02-14T03:07:19;0.22;;;0.20;;
33563;SDS011;19894;48.452;11.494;2023-02-14T03:10:19;0.10;;;0.10;;
33563;SDS011;19894;48.452;11.494;2023-02-14T03:27:15;0.10;;;0.10;;
33563;SDS011;19894;48.452;11.494;2023-02-14T03:32:48;0.10;;;0.10;;
33563;SDS011;19894;48.452;11.494;2023-02-14T03:40:20;0.10;;;0.10;;
33563;SDS011;19894;48.452;11.494;2023-02-14T03:42:50;0.10;;;0.10;;
33563;SDS011;19894;48.452;11.494;2023-02-14T03:45:22;0.15;;;0.13;;
33563;SDS011;19894;48.452;11.494;2023-02-14T03:48:10;0.03;;;0.00;;
33563;SDS011;19894;48.452;11.494;2023-02-14T03:50:38;0.10;;;0.10;;
33563;SDS011;19894;48.452;11.494;2023-02-14T03:53:06;0.10;;;0.10;;
33563;SDS011;19894;48.452;11.494;2023-02-14T03:55:36;0.15;;;0.15;;
33563;SDS011;19894;48.452;11.494;2023-02-14T04:00:35;0.10;;;0.10;;
33563;SDS011;19894;48.452;11.494;2023-02-14T04:03:05;0.20;;;0.20;;
33563;SDS011;19894;48.452;11.494;2023-02-14T04:05:38;0.05;;;0.05;;
33563;SDS011;19894;48.452;11.494;2023-02-14T04:08:08;0.03;;;0.03;;
33563;SDS011;19894;48.452;11.494;2023-02-14T04:10:34;0.10;;;0.10;;
33563;SDS011;19894;48.452;11.494;2023-02-14T04:13:01;0.08;;;0.08;;
33563;SDS011;19894;48.452;11.494;2023-02-14T04:15:26;0.00;;;0.00;;
33563;SDS011;19894;48.452;11.494;2023-02-14T04:17:52;0.25;;;0.13;;
33563;SDS011;19894;48.452;11.494;2023-02-14T04:20:36;0.17;;;0.17;;
33563;SDS011;19894;48.452;11.494;2023-02-14T04:23:01;0.10;;;0.10;;
33563;SDS011;19894;48.452;11.494;2023-02-14T04:25:27;0.00;;;0.00;;
33563;SDS011;19894;48.452;11.494;2023-02-14T04:27:53;0.10;;;0.10;;
33563;SDS011;19894;48.452;11.494;2023-02-14T04:30:19;0.08;;;0.08;;
33563;SDS011;19894;48.452;11.494;2023-02-14T04:32:46;0.22;;;0.10;;
33563;SDS011;19894;48.452;11.494;2023-02-14T04:35:12;0.20;;;0.15;;
33563;SDS011;19894;48.452;11.494;2023-02-14T04:37:38;0.25;;;0.20;;
33563;SDS011;19894;48.452;11.494;2023-02-14T04:40:04;0.10;;;0.10;;
33563;SDS011;19894;48.452;11.494;2023-02-14T04:42:30;0.00;;;0.00;;
33563;SDS011;19894;48.452;11.494;2023-02-14T04:44:56;0.10;;;0.08;;
33563;SDS011;19894;48.452;11.494;2023-02-14T04:47:21;0.40;;;0.10;;
33563;SDS011;19894;48.452;11.494;2023-02-14T04:49:47;0.00;;;0.00;;
33563;SDS011;19894;48.452;11.494;2023-02-14T04:52:12;0.10;;;0.10;;
33563;SDS011;19894;48.452;11.494;2023-02-14T04:54:38;0.35;;;0.10;;
33563;SDS011;19894;48.452;11.494;2023-02-14T04:57:04;0.10;;;0.10;;
33563;SDS011;19894;48.452;11.494;2023-02-14T04:59:30;0.15;;;0.13;;
33563;SDS011;19894;48.452;11.494;2023-02-14T05:01:55;0.08;;;0.00;;
33563;SDS011;19894;48.452;11.494;2023-02-14T05:04:21;0.10;;;0.10;;
33563;SDS011;19894;48.452;11.494;2023-02-14T05:06:46;0.10;;;0.10;;
33563;SDS011;19894;48.452;11.494;2023-02-14T05:09:12;0.10;;;0.10;;
33563;SDS011;19894;48.452;11.494;2023-02-14T05:11:37;0.20;;;0.10;;
33563;SDS011;19894;48.452;11.494;2023-02-14T05:14:03;0.00;;;0.00;;
33563;SDS011;19894;48.452;11.494;2023-02-14T05:16:28;0.00;;;0.00;;
33563;SDS011;19894;48.452;11.494;2023-02-14T05:18:54;0.10;;;0.10;;
33563;SDS011;19894;48.452;11.494;2023-02-14T05:21:20;0.17;;;0.10;;
33563;SDS011;19894;48.452;11.494;2023-02-14T05:23:45;0.00;;;0.00;;
33563;SDS011;19894;48.452;11.494;2023-02-14T05:26:11;0.25;;;0.20;;
33563;SDS011;19894;48.452;11.494;2023-02-14T05:28:36;0.00;;;0.00;;
33563;SDS011;19894;48.452;11.494;2023-02-14T05:31:04;0.10;;;0.10;;
33563;SDS011;19894;48.452;11.494;2023-02-14T05:33:30;0.00;;;0.00;;
33563;SDS011;19894;48.452;11.494;2023-02-14T05:35:57;0.00;;;0.00;;
33563;SDS011;19894;48.452;11.494;2023-02-14T05:38:24;0.10;;;0.10;;
33563;SDS011;19894;48.452;11.494;2023-02-14T05:40:50;0.10;;;0.10;;
33563;SDS011;19894;48.452;11.494;2023-02-14T05:43:15;0.00;;;0.00;;
33563;SDS011;19894;48.452;11.494;2023-02-14T05:45:41;0.10;;;0.10;;
33563;SDS011;19894;48.452;11.494;2023-02-14T05:48:06;0.00;;;0.00;;
33563;SDS011;19894;48.452;11.494;2023-02-14T05:50:32;0.20;;;0.10;;
33563;SDS011;19894;48.452;11.494;2023-02-14T05:52:57;0.05;;;0.05;;
33563;SDS011;19894;48.452;11.494;2023-02-14T05:55:24;0.10;;;0.10;;
33563;SDS011;19894;48.452;11.494;2023-02-14T05:57:50;0.08;;;0.08;;
33563;SDS011;19894;48.452;11.494;2023-02-14T06:00:15;0.00;;;0.00;;
33563;SDS011;19894;48.452;11.494;2023-02-14T06:02:42;0.10;;;0.10;;
33563;SDS011;19894;48.452;11.494;2023-02-14T06:05:07;0.13;;;0.13;;
33563;SDS011;19894;48.452;11.494;2023-02-14T06:07:33;0.10;;;0.10;;
33563;SDS011;19894;48.452;11.494;2023-02-14T06:09:58;0.10;;;0.10;;
33563;SDS011;19894;48.452;11.494;2023-02-14T06:12:24;0.10;;;0.10;;
33563;SDS011;19894;48.452;11.494;2023-02-14T06:14:49;0.00;;;0.00;;
33563;SDS011;19894;48.452;11.494;2023-02-14T06:17:15;0.10;;;0.10;;
33563;SDS011;19894;48.452;11.494;2023-02-14T06:19:41;0.15;;;0.10;;
33563;SDS011;19894;48.452;11.494;2023-02-14T06:22:07;0.10;;;0.10;;
33563;SDS011;19894;48.452;11.494;2023-02-14T06:24:34;0.10;;;0.00;;
33563;SDS011;19894;48.452;11.494;2023-02-14T06:27:00;0.00;;;0.00;;
33563;SDS011;19894;48.452;11.494;2023-02-14T06:29:26;0.08;;;0.08;;
33563;SDS011;19894;48.452;11.494;2023-02-14T06:31:52;0.00;;;0.00;;
33563;SDS011;19894;48.452;11.494;2023-02-14T06:34:17;0.00;;;0.00;;
33563;SDS011;19894;48.452;11.494;2023-02-14T06:36:43;0.00;;;0.00;;
33563;SDS011;19894;48.452;11.494;2023-02-14T06:39:08;0.00;;;0.00;;
33563;SDS011;19894;48.452;11.494;2023-02-14T06:41:34;0.10;;;0.08;;
33563;SDS011;19894;48.452;11.494;2023-02-14T06:44:00;0.00;;;0.00;;
33563;SDS011;19894;48.452;11.494;2023-02-14T06:46:25;0.00;;;0.00;;
33563;SDS011;19894;48.452;11.494;2023-02-14T06:48:51;0.10;;;0.10;;
33563;SDS011;19894;48.452;11.494;2023-02-14T06:51:16;0.10;;;0.10;;
33563;SDS011;19894;48.452;11.494;2023-02-14T06:53:42;0.10;;;0.00;;
33563;SDS011;19894;48.452;11.494;2023-02-14T06:56:07;0.00;;;0.00;;
33563;SDS011;19894;48.452;11.494;2023-02-14T06:58:33;0.10;;;0.00;;
33563;SDS011;19894;48.452;11.494;2023-02-14T07:00:59;0.10;;;0.10;;
33563;SDS011;19894;48.452;11.494;2023-02-14T07:03:25;0.00;;;0.00;;
33563;SDS011;19894;48.452;11.494;2023-02-14T07:05:51;0.00;;;0.00;;
33563;SDS011;19894;48.452;11.494;2023-02-14T07:08:17;0.03;;;0.03;;
33563;SDS011;19894;48.452;11.494;2023-02-14T07:10:43;0.00;;;0.00;;
33563;SDS011;19894;48.452;11.494;2023-02-14T07:13:08;0.00;;;0.00;;
33563;SDS011;19894;48.452;11.494;2023-02-14T07:15:34;0.00;;;0.00;;
33563;SDS011;19894;48.452;11.494;2023-02-14T07:17:59;0.03;;;0.03;;
33563;SDS011;19894;48.452;11.494;2023-02-14T07:20:25;0.00;;;0.00;;
33563;SDS011;19894;48.452;11.494;2023-02-14T07:22:50;0.10;;;0.00;;
33563;SDS011;19894;48.452;11.494;2023-02-14T07:25:16;0.10;;;0.10;;
33563;SDS011;19894;48.452;11.494;2023-02-14T07:27:42;0.10;;;0.00;;
33563;SDS011;19894;48.452;11.494;2023-02-14T07:30:08;0.10;;;0.10;;
33563;SDS011;19894;48.452;11.494;2023-02-14T07:32:35;0.35;;;0.05;;
33563;SDS011;19894;48.452;11.494;2023-02-14T07:35:02;0.10;;;0.10;;
33563;SDS011;19894;48.452;11.494;2023-02-14T07:37:27;0.10;;;0.10;;
33563;SDS011;19894;48.452;11.494;2023-02-14T07:39:53;0.10;;;0.10;;
33563;SDS011;19894;48.452;11.494;2023-02-14T07:42:18;0.20;;;0.10;;
33563;SDS011;19894;48.452;11.494;2023-02-14T07:44:44;0.10;;;0.10;;
33563;SDS011;19894;48.452;11.494;2023-02-14T07:47:10;0.10;;;0.10;;
33563;SDS011;19894;48.452;11.494;2023-02-14T07:49:36;0.00;;;0.00;;
33563;SDS011;19894;48.452;11.494;2023-02-14T07:52:02;0.08;;;0.08;;
33563;SDS011;19894;48.452;11.494;2023-02-14T07:54:28;0.00;;;0.00;;
33563;SDS011;19894;48.452;11.494;2023-02-14T07:56:54;0.10;;;0.10;;
33563;SDS011;19894;48.452;11.494;2023-02-14T07:59:20;0.20;;;0.10;;
33563;SDS011;19894;48.452;11.494;2023-02-14T08:01:45;0.10;;;0.10;;
33563;SDS011;19894;48.452;11.494;2023-02-14T08:04:11;0.00;;;0.00;;
33563;SDS011;19894;48.452;11.494;2023-02-14T08:06:40;0.25;;;0.10;;
33563;SDS011;19894;48.452;11.494;2023-02-14T08:09:06;0.03;;;0.03;;
33563;SDS011;19894;48.452;11.494;2023-02-14T08:11:33;0.00;;;0.00;;
33563;SDS011;19894;48.452;11.494;2023-02-14T08:14:18;0.00;;;0.00;;
33563;SDS011;19894;48.452;11.494;2023-02-14T08:16:44;0.10;;;0.10;;
33563;SDS011;19894;48.452;11.494;2023-02-14T08:19:10;0.08;;;0.08;;
33563;SDS011;19894;48.452;11.494;2023-02-14T08:21:35;0.00;;;0.00;;
33563;SDS011;19894;48.452;11.494;2023-02-14T08:24:01;0.00;;;0.00;;
33563;SDS011;19894;48.452;11.494;2023-02-14T08:26:26;0.10;;;0.10;;
33563;SDS011;19894;48.452;11.494;2023-02-14T08:28:52;0.00;;;0.00;;
33563;SDS011;19894;48.452;11.494;2023-02-14T08:31:24;0.10;;;0.10;;
33563;SDS011;19894;48.452;11.494;2023-02-14T08:33:52;0.00;;;0.00;;
33563;SDS011;19894;48.452;11.494;2023-02-14T08:36:18;0.25;;;0.00;;
33563;SDS011;19894;48.452;11.494;2023-02-14T08:38:44;0.17;;;0.10;;
33563;SDS011;19894;48.452;11.494;2023-02-14T08:41:12;0.00;;;0.00;;
33563;SDS011;19894;48.452;11.494;2023-02-14T08:43:39;0.10;;;0.10;;
33563;SDS011;19894;48.452;11.494;2023-02-14T08:46:04;0.00;;;0.00;;
33563;SDS011;19894;48.452;11.494;2023-02-14T08:48:30;0.20;;;0.13;;
33563;SDS011;19894;48.452;11.494;2023-02-14T08:50:56;0.00;;;0.00;;
33563;SDS011;19894;48.452;11.494;2023-02-14T08:53:21;0.10;;;0.10;;
33563;SDS011;19894;48.452;11.494;2023-02-14T08:55:47;0.00;;;0.00;;
33563;SDS011;19894;48.452;11.494;2023-02-14T08:58:13;0.15;;;0.10;;
33563;SDS011;19894;48.452;11.494;2023-02-14T09:00:38;0.10;;;0.10;;
33563;SDS011;19894;48.452;11.494;2023-02-14T09:03:04;0.10;;;0.10;;
33563;SDS011;19894;48.452;11.494;2023-02-14T09:05:30;0.00;;;0.00;;
33563;SDS011;19894;48.452;11.494;2023-02-14T09:07:55;0.00;;;0.00;;
33563;SDS011;19894;48.452;11.494;2023-02-14T09:10:21;0.00;;;0.00;;
33563;SDS011;19894;48.452;11.494;2023-02-14T09:12:48;0.13;;;0.00;;
33563;SDS011;19894;48.452;11.494;2023-02-14T09:15:13;0.10;;;0.10;;
33563;SDS011;19894;48.452;11.494;2023-02-14T09:17:39;0.00;;;0.00;;
33563;SDS011;19894;48.452;11.494;2023-02-14T09:20:06;0.10;;;0.10;;
33563;SDS011;19894;48.452;11.494;2023-02-14T09:22:33;0.10;;;0.05;;
33563;SDS011;19894;48.452;11.494;2023-02-14T09:24:59;0.03;;;0.00;;
33563;SDS011;19894;48.452;11.494;2023-02-14T09:27:25;0.08;;;0.00;;
33563;SDS011;19894;48.452;11.494;2023-02-14T09:29:51;0.00;;;0.00;;
33563;SDS011;19894;48.452;11.494;2023-02-14T09:32:17;0.20;;;0.20;;
33563;SDS011;19894;48.452;11.494;2023-02-14T09:34:43;0.15;;;0.10;;
33563;SDS011;19894;48.452;11.494;2023-02-14T09:37:12;0.00;;;0.00;;
33563;SDS011;19894;48.452;11.494;2023-02-14T09:39:38;0.00;;;0.00;;
33563;SDS011;19894;48.452;11.494;2023-02-14T09:42:10;0.00;;;0.00;;
33563;SDS011;19894;48.452;11.494;2023-02-14T09:47:33;0.00;;;0.00;;
33563;SDS011;19894;48.452;11.494;2023-02-14T09:50:30;0.00;;;0.00;;
33563;SDS011;19894;48.452;11.494;2023-02-14T09:53:01;0.00;;;0.00;;
33563;SDS011;19894;48.452;11.494;2023-02-14T09:55:54;0.10;;;0.03;;
33563;SDS011;19894;48.452;11.494;2023-02-14T09:58:48;0.15;;;0.00;;
33563;SDS011;19894;48.452;11.494;2023-02-14T10:01:25;0.10;;;0.00;;
33563;SDS011;19894;48.452;11.494;2023-02-14T10:06:51;0.00;;;0.00;;
33563;SDS011;19894;48.452;11.494;2023-02-14T10:09:59;0.00;;;0.00;;
33563;SDS011;19894;48.452;11.494;2023-02-14T10:12:45;0.00;;;0.00;;
33563;SDS011;19894;48.452;11.494;2023-02-14T10:15:22;0.00;;;0.00;;
33563;SDS011;19894;48.452;11.494;2023-02-14T10:17:52;0.00;;;0.00;;
33563;SDS011;19894;48.452;11.494;2023-02-14T10:20:27;0.10;;;0.10;;
33563;SDS011;19894;48.452;11.494;2023-02-14T10:25:23;0.00;;;0.00;;
33563;SDS011;19894;48.452;11.494;2023-02-14T10:27:55;0.00;;;0.00;;
33563;SDS011;19894;48.452;11.494;2023-02-14T10:30:25;0.10;;;0.10;;
33563;SDS011;19894;48.452;11.494;2023-02-14T10:33:33;0.05;;;0.00;;
33563;SDS011;19894;48.452;11.494;2023-02-14T10:39:13;0.10;;;0.10;;
33563;SDS011;19894;48.452;11.494;2023-02-14T10:47:36;0.00;;;0.00;;
33563;SDS011;19894;48.452;11.494;2023-02-14T10:50:18;0.10;;;0.10;;
33563;SDS011;19894;48.452;11.494;2023-02-14T10:55:46;0.00;;;0.00;;
33563;SDS011;19894;48.452;11.494;2023-02-14T10:58:23;0.00;;;0.00;;
33563;SDS011;19894;48.452;11.494;2023-02-14T11:01:35;0.17;;;0.10;;
33563;SDS011;19894;48.452;11.494;2023-02-14T11:03:50;0.10;;;0.03;;
33563;SDS011;19894;48.452;11.494;2023-02-14T11:06:16;0.00;;;0.00;;
33563;SDS011;19894;48.452;11.494;2023-02-14T11:08:42;0.08;;;0.08;;
33563;SDS011;19894;48.452;11.494;2023-02-14T11:11:23;0.20;;;0.20;;
33563;SDS011;19894;48.452;11.494;2023-02-14T11:13:55;0.00;;;0.00;;
33563;SDS011;19894;48.452;11.494;2023-02-14T11:21:38;0.03;;;0.03;;
33563;SDS011;19894;48.452;11.494;2023-02-14T11:26:50;0.00;;;0.00;;
33563;SDS011;19894;48.452;11.494;2023-02-14T11:29:23;0.00;;;0.00;;
33563;SDS011;19894;48.452;11.494;2023-02-14T11:31:51;0.00;;;0.00;;
33563;SDS011;19894;48.452;11.494;2023-02-14T11:37:14;0.03;;;0.03;;
33563;SDS011;19894;48.452;11.494;2023-02-14T11:39:52;0.08;;;0.00;;
33563;SDS011;19894;48.452;11.494;2023-02-14T11:44:59;0.00;;;0.00;;
33563;SDS011;19894;48.452;11.494;2023-02-14T11:47:26;0.10;;;0.00;;
33563;SDS011;19894;48.452;11.494;2023-02-14T11:49:58;0.00;;;0.00;;
33563;SDS011;19894;48.452;11.494;2023-02-14T11:52:25;0.00;;;0.00;;
33563;SDS011;19894;48.452;11.494;2023-02-14T11:54:53;0.35;;;0.30;;
33563;SDS011;19894;48.452;11.494;2023-02-14T11:57:33;0.00;;;0.00;;
33563;SDS011;19894;48.452;11.494;2023-02-14T12:00:03;0.10;;;0.10;;
33563;SDS011;19894;48.452;11.494;2023-02-14T12:02:45;0.10;;;0.10;;
33563;SDS011;19894;48.452;11.494;2023-02-14T12:05:34;0.03;;;0.03;;
33563;SDS011;19894;48.452;11.494;2023-02-14T12:08:09;0.52;;;0.38;;
33563;SDS011;19894;48.452;11.494;2023-02-14T12:10:35;0.10;;;0.10;;
33563;SDS011;19894;48.452;11.494;2023-02-14T12:26:17;0.03;;;0.00;;
33563;SDS011;19894;48.452;11.494;2023-02-14T12:31:50;0.10;;;0.10;;
33563;SDS011;19894;48.452;11.494;2023-02-14T12:34:17;0.10;;;0.10;;
33563;SDS011;19894;48.452;11.494;2023-02-14T12:40:14;0.00;;;0.00;;
33563;SDS011;19894;48.452;11.494;2023-02-14T12:42:33;0.10;;;0.10;;
33563;SDS011;19894;48.452;11.494;2023-02-14T13:15:24;0.10;;;0.10;;
33563;SDS011;19894;48.452;11.494;2023-02-14T13:18:02;0.00;;;0.00;;
33563;SDS011;19894;48.452;11.494;2023-02-14T13:23:22;0.00;;;0.00;;
33563;SDS011;19894;48.452;11.494;2023-02-14T13:26:05;0.20;;;0.20;;
33563;SDS011;19894;48.452;11.494;2023-02-14T13:28:31;0.03;;;0.03;;
33563;SDS011;19894;48.452;11.494;2023-02-14T13:30:58;0.00;;;0.00;;
33563;SDS011;19894;48.452;11.494;2023-02-14T13:36:03;0.10;;;0.10;;
33563;SDS011;19894;48.452;11.494;2023-02-14T13:38:37;0.00;;;0.00;;
33563;SDS011;19894;48.452;11.494;2023-02-14T13:41:09;0.03;;;0.03;;
33563;SDS011;19894;48.452;11.494;2023-02-14T13:44:10;0.10;;;0.10;;
33563;SDS011;19894;48.452;11.494;2023-02-14T13:51:46;0.10;;;0.10;;
33563;SDS011;19894;48.452;11.494;2023-02-14T13:57:29;0.03;;;0.03;;
33563;SDS011;19894;48.452;11.494;2023-02-14T14:02:48;0.03;;;0.03;;
33563;SDS011;19894;48.452;11.494;2023-02-14T14:06:03;0.10;;;0.10;;
33563;SDS011;19894;48.452;11.494;2023-02-14T14:10:49;0.10;;;0.10;;
33563;SDS011;19894;48.452;11.494;2023-02-14T14:22:01;0.28;;;0.10;;
33563;SDS011;19894;48.452;11.494;2023-02-14T14:24:33;0.00;;;0.00;;
33563;SDS011;19894;48.452;11.494;2023-02-14T14:29:46;0.17;;;0.17;;
33563;SDS011;19894;48.452;11.494;2023-02-14T14:32:30;0.10;;;0.10;;
33563;SDS011;19894;48.452;11.494;2023-02-14T14:35:16;0.20;;;0.15;;
33563;SDS011;19894;48.452;11.494;2023-02-14T14:37:56;0.10;;;0.10;;
33563;SDS011;19894;48.452;11.494;2023-02-14T14:42:53;0.15;;;0.10;;
33563;SDS011;19894;48.452;11.494;2023-02-14T14:45:27;0.20;;;0.20;;
33563;SDS011;19894;48.452;11.494;2023-02-14T14:47:56;0.00;;;0.00;;
33563;SDS011;19894;48.452;11.494;2023-02-14T14:50:28;0.15;;;0.15;;
33563;SDS011;19894;48.452;11.494;2023-02-14T14:52:58;0.08;;;0.08;;
33563;SDS011;19894;48.452;11.494;2023-02-14T14:55:29;0.10;;;0.10;;
33563;SDS011;19894;48.452;11.494;2023-02-14T14:57:59;0.00;;;0.00;;
33563;SDS011;19894;48.452;11.494;2023-02-14T15:00:32;0.10;;;0.10;;
33563;SDS011;19894;48.452;11.494;2023-02-14T15:05:35;0.20;;;0.20;;
33563;SDS011;19894;48.452;11.494;2023-02-14T15:11:05;0.10;;;0.10;;
33563;SDS011;19894;48.452;11.494;2023-02-14T15:13:54;0.10;;;0.10;;
33563;SDS011;19894;48.452;11.494;2023-02-14T15:16:25;0.17;;;0.10;;
33563;SDS011;19894;48.452;11.494;2023-02-14T15:19:05;0.10;;;0.10;;
33563;SDS011;19894;48.452;11.494;2023-02-14T15:21:39;0.22;;;0.20;;
33563;SDS011;19894;48.452;11.494;2023-02-14T15:24:05;0.13;;;0.10;;
33563;SDS011;19894;48.452;11.494;2023-02-14T15:26:37;0.28;;;0.17;;
33563;SDS011;19894;48.452;11.494;2023-02-14T15:29:04;0.00;;;0.00;;
33563;SDS011;19894;48.452;11.494;2023-02-14T15:31:34;0.10;;;0.10;;
33563;SDS011;19894;48.452;11.494;2023-02-14T15:34:03;0.40;;;0.25;;
33563;SDS011;19894;48.452;11.494;2023-02-14T15:36:30;0.22;;;0.10;;
33563;SDS011;19894;48.452;11.494;2023-02-14T15:38:58;0.10;;;0.10;;
33563;SDS011;19894;48.452;11.494;2023-02-14T15:41:26;0.20;;;0.20;;
33563;SDS011;19894;48.452;11.494;2023-02-14T15:43:52;0.20;;;0.20;;
33563;SDS011;19894;48.452;11.494;2023-02-14T15:48:50;0.43;;;0.20;;
33563;SDS011;19894;48.452;11.494;2023-02-14T15:51:21;0.40;;;0.40;;
33563;SDS011;19894;48.452;11.494;2023-02-14T15:53:59;0.30;;;0.30;;
33563;SDS011;19894;48.452;11.494;2023-02-14T15:56:30;0.45;;;0.20;;
33563;SDS011;19894;48.452;11.494;2023-02-14T16:01:28;0.20;;;0.10;;
33563;SDS011;19894;48.452;11.494;2023-02-14T16:03:56;0.50;;;0.40;;
33563;SDS011;19894;48.452;11.494;2023-02-14T16:09:02;0.22;;;0.22;;
33563;SDS011;19894;48.452;11.494;2023-02-14T16:11:33;0.35;;;0.20;;
33563;SDS011;19894;48.452;11.494;2023-02-14T16:17:14;0.45;;;0.35;;
33563;SDS011;19894;48.452;11.494;2023-02-14T16:19:55;0.30;;;0.30;;
33563;SDS011;19894;48.452;11.494;2023-02-14T16:22:25;0.30;;;0.30;;
33563;SDS011;19894;48.452;11.494;2023-02-14T16:24:58;0.22;;;0.20;;
33563;SDS011;19894;48.452;11.494;2023-02-14T16:27:24;0.40;;;0.40;;
33563;SDS011;19894;48.452;11.494;2023-02-14T16:29:49;0.63;;;0.63;;
33563;SDS011;19894;48.452;11.494;2023-02-14T16:32:19;0.82;;;0.52;;
33563;SDS011;19894;48.452;11.494;2023-02-14T16:34:47;0.38;;;0.38;;
33563;SDS011;19894;48.452;11.494;2023-02-14T16:37:20;0.40;;;0.30;;
33563;SDS011;19894;48.452;11.494;2023-02-14T16:39:47;0.40;;;0.40;;
33563;SDS011;19894;48.452;11.494;2023-02-14T16:42:15;0.43;;;0.40;;
33563;SDS011;19894;48.452;11.494;2023-02-14T16:44:41;0.45;;;0.43;;
33563;SDS011;19894;48.452;11.494;2023-02-14T16:47:11;0.70;;;0.52;;
33563;SDS011;19894;48.452;11.494;2023-02-14T16:49:39;0.30;;;0.30;;
33563;SDS011;19894;48.452;11.494;2023-02-14T16:52:05;0.20;;;0.20;;
33563;SDS011;19894;48.452;11.494;2023-02-14T16:54:34;1.05;;;0.75;;
33563;SDS011;19894;48.452;11.494;2023-02-14T16:57:01;0.40;;;0.40;;
33563;SDS011;19894;48.452;11.494;2023-02-14T16:59:28;0.50;;;0.50;;
33563;SDS011;19894;48.452;11.494;2023-02-14T17:01:55;0.70;;;0.68;;
33563;SDS011;19894;48.452;11.494;2023-02-14T17:04:22;0.55;;;0.40;;
33563;SDS011;19894;48.452;11.494;2023-02-14T17:06:50;0.35;;;0.30;;
33563;SDS011;19894;48.452;11.494;2023-02-14T17:09:19;0.80;;;0.80;;
33563;SDS011;19894;48.452;11.494;2023-02-14T17:11:48;0.50;;;0.50;;
33563;SDS011;19894;48.452;11.494;2023-02-14T17:14:16;0.47;;;0.45;;
33563;SDS011;19894;48.452;11.494;2023-02-14T17:19:11;0.82;;;0.50;;
33563;SDS011;19894;48.452;11.494;2023-02-14T17:21:37;4.55;;;0.75;;
33563;SDS011;19894;48.452;11.494;2023-02-14T17:24:03;1.48;;;0.57;;
33563;SDS011;19894;48.452;11.494;2023-02-14T17:26:28;1.17;;;0.43;;
33563;SDS011;19894;48.452;11.494;2023-02-14T17:28:54;0.82;;;0.50;;
33563;SDS011;19894;48.452;11.494;2023-02-14T17:31:20;0.40;;;0.40;;
33563;SDS011;19894;48.452;11.494;2023-02-14T17:33:45;3.92;;;0.60;;
33563;SDS011;19894;48.452;11.494;2023-02-14T17:36:12;2.13;;;0.55;;
33563;SDS011;19894;48.452;11.494;2023-02-14T17:38:38;5.30;;;0.82;;
33563;SDS011;19894;48.452;11.494;2023-02-14T17:41:13;1.80;;;0.65;;
33563;SDS011;19894;48.452;11.494;2023-02-14T17:43:41;0.38;;;0.28;;
33563;SDS011;19894;48.452;11.494;2023-02-14T17:46:07;1.38;;;0.60;;
33563;SDS011;19894;48.452;11.494;2023-02-14T17:48:33;0.30;;;0.30;;
33563;SDS011;19894;48.452;11.494;2023-02-14T17:51:05;0.50;;;0.50;;
33563;SDS011;19894;48.452;11.494;2023-02-14T17:53:33;2.53;;;0.70;;